Time;durP1;ratioP1;P1;durP2;ratioP2;P2;SDS_P1;SDS_P2;PMS_P1;PMS_P2;Temp;Humidity;BMP_temperature;BMP_pressure;BME280_temperature;BME280_humidity;BME280_pressure;Samples;Min_cycle;Max_cycle;Signal;HPM_P1;HPM_P2
2021/12/12 00:00:30;;;;;;;;;;;2.30;99.90;2.80;100498.00;;;;342670;28;89283;-89
2021/12/12 00:00:54;;;;;;;;;;;2.20;99.90;2.80;100496.00;;;;343445;28;83819;-89
2021/12/12 00:01:06;;;;;;;;;;;2.20;99.90;2.90;100500.00;;;;341448;28;89143;-89
2021/12/12 00:01:28;;;;;;;;;;;2.20;99.90;3.00;100502.00;;;;343399;28;82403;-89
2021/12/12 00:01:52;;;;;;;;;;;2.20;99.90;2.80;100494.00;;;;341320;28;90687;-88
2021/12/12 00:02:18;;;;;;;;;;;2.20;99.90;2.90;100486.00;;;;343193;28;82489;-89
2021/12/12 00:02:49;;;;;;;;;;;2.20;99.90;2.90;100484.00;;;;341485;28;89248;-89
2021/12/12 00:03:16;;;;;;;;;;;2.20;99.90;2.80;100495.00;;;;344488;28;82614;-88
2021/12/12 00:03:35;;;;;;;;;;;2.20;99.90;2.80;100494.00;;;;342875;28;89175;-88
2021/12/12 00:03:50;;;;;;;;;;;2.20;99.90;2.80;100502.00;;;;342447;28;84560;-89
2021/12/12 00:04:12;;;;;;;;;;;2.20;99.90;2.80;100498.00;;;;340660;28;88423;-88
2021/12/12 00:04:32;;;;;;;;;;;2.20;99.90;2.90;100500.00;;;;343304;28;83495;-89
2021/12/12 00:04:47;;;;;;;;;;;2.20;99.90;2.80;100498.00;;;;342932;28;88234;-88
2021/12/12 00:04:59;;;;;;;;;;;2.20;99.90;2.80;100501.00;;;;344773;28;82472;-88
2021/12/12 00:05:14;;;;;;;;;;;2.20;99.90;2.80;100490.00;;;;344307;28;87849;-89
2021/12/12 00:05:42;;;;;;;;;;;2.20;99.90;2.80;100491.00;;;;342153;28;82292;-88
2021/12/12 00:05:55;;;;;;;;;;;2.20;99.90;2.80;100492.00;;;;344376;28;87467;-89
2021/12/12 00:06:13;;;;;;;;;;;2.20;99.90;2.80;100498.00;;;;344590;28;82488;-88
2021/12/12 00:06:31;;;;;;;;;;;2.20;99.90;2.80;100491.00;;;;345599;28;87366;-89
2021/12/12 00:06:52;;;;;;;;;;;2.20;99.90;2.70;100494.00;;;;344726;28;83519;-88
2021/12/12 00:07:10;;;;;;;;;;;2.20;99.90;2.70;100500.00;;;;346469;28;87955;-89
2021/12/12 00:07:26;;;;;;;;;;;2.20;99.90;2.70;100501.00;;;;346022;28;82861;-89
2021/12/12 00:07:38;;;;;;;;;;;2.10;99.90;2.60;100496.00;;;;345349;28;91688;-86
2021/12/12 00:07:50;;;;;;;;;;;2.10;99.90;2.60;100500.00;;;;346002;28;83202;-89
2021/12/12 00:08:03;;;;;;;;;;;2.10;99.90;2.60;100497.00;;;;347075;28;89530;-89
2021/12/12 00:08:15;;;;;;;;;;;2.10;99.90;2.70;100498.00;;;;346128;28;83353;-89
2021/12/12 00:08:27;;;;;;;;;;;2.10;99.90;2.60;100492.00;;;;346762;27;90413;-89
2021/12/12 00:08:39;;;;;;;;;;;2.10;99.90;2.70;100497.00;;;;348747;27;83545;-89
2021/12/12 00:08:57;;;;;;;;;;;2.10;99.90;2.60;100494.00;;;;346811;28;91639;-89
2021/12/12 00:09:22;;;;;;;;;;;2.10;99.90;2.60;100509.00;;;;347529;28;83518;-88
2021/12/12 00:09:41;;;;;;;;;;;2.10;99.90;2.70;100501.00;;;;344278;28;89282;-89
2021/12/12 00:09:55;;;;;;;;;;;2.10;99.90;2.70;100491.00;;;;346760;28;83567;-89
2021/12/12 00:10:11;;;;;;;;;;;2.10;99.90;2.70;100500.00;;;;345530;28;89075;-88
2021/12/12 00:10:25;;;;;;;;;;;2.10;99.90;2.70;100495.00;;;;347043;28;82576;-88
2021/12/12 00:10:38;;;;;;;;;;;2.10;99.90;2.70;100499.00;;;;345475;28;90425;-89
2021/12/12 00:10:56;;;;;;;;;;;2.10;99.90;2.70;100493.00;;;;347435;28;83437;-89
2021/12/12 00:11:08;;;;;;;;;;;2.10;99.90;2.70;100501.00;;;;345648;28;89533;-88
2021/12/12 00:11:22;;;;;;;;;;;2.10;99.90;2.60;100496.00;;;;347474;28;83232;-89
2021/12/12 00:11:34;;;;;;;;;;;2.10;99.90;2.60;100498.00;;;;345729;28;89212;-88
2021/12/12 00:11:46;;;;;;;;;;;2.10;99.90;2.60;100500.00;;;;346051;28;83355;-89
2021/12/12 00:11:58;;;;;;;;;;;2.10;99.90;2.70;100500.00;;;;345261;28;91479;-89
2021/12/12 00:12:19;;;;;;;;;;;2.10;99.90;2.60;100498.00;;;;347570;28;83507;-89
2021/12/12 00:12:36;;;;;;;;;;;2.10;99.90;2.60;100491.00;;;;347138;28;87929;-89
2021/12/12 00:12:49;;;;;;;;;;;2.00;99.90;2.60;100495.00;;;;346117;28;82194;-89
2021/12/12 00:13:06;;;;;;;;;;;2.00;99.90;2.70;100494.00;;;;346841;27;88902;-89
2021/12/12 00:13:22;;;;;;;;;;;2.00;99.90;2.60;100493.00;;;;348348;27;83475;-89
2021/12/12 00:13:41;;;;;;;;;;;2.10;99.90;2.50;100499.00;;;;347022;28;89470;-89
2021/12/12 00:14:02;;;;;;;;;;;2.00;99.90;2.50;100504.00;;;;348136;27;83623;-89
2021/12/12 00:14:23;;;;;;;;;;;2.00;99.90;2.50;100499.00;;;;345549;28;89509;-89
2021/12/12 00:14:34;;;;;;;;;;;2.00;99.90;2.50;100489.00;;;;347582;28;83213;-89
2021/12/12 00:14:46;;;;;;;;;;;2.00;99.90;2.50;100499.00;;;;347168;28;88023;-89
2021/12/12 00:14:58;;;;;;;;;;;2.00;99.90;2.50;100493.00;;;;346166;28;83158;-88
2021/12/12 00:15:11;;;;;;;;;;;2.00;99.90;2.50;100500.00;;;;349638;27;91564;-89
2021/12/12 00:15:23;;;;;;;;;;;2.00;99.90;2.50;100496.00;;;;350341;27;83587;-88
2021/12/12 00:15:35;;;;;;;;;;;2.00;99.90;2.50;100498.00;;;;346777;28;89480;-89
2021/12/12 00:15:47;;;;;;;;;;;2.00;99.90;2.60;100503.00;;;;347340;27;82606;-89
2021/12/12 00:15:59;;;;;;;;;;;2.00;99.90;2.60;100501.00;;;;348214;27;89173;-88
2021/12/12 00:16:11;;;;;;;;;;;2.00;99.90;2.70;100498.00;;;;347515;28;83649;-89
2021/12/12 00:16:23;;;;;;;;;;;2.00;99.90;2.60;100497.00;;;;344297;28;89421;-89
2021/12/12 00:16:39;;;;;;;;;;;2.00;99.90;2.70;100494.00;;;;345923;28;82585;-89
2021/12/12 00:16:51;;;;;;;;;;;2.00;99.90;2.60;100497.00;;;;346893;28;88333;-88
2021/12/12 00:17:04;;;;;;;;;;;2.00;99.90;2.60;100493.00;;;;346916;28;82636;-88
2021/12/12 00:17:15;;;;;;;;;;;2.00;99.90;2.50;100499.00;;;;345751;28;89583;-88
2021/12/12 00:17:27;;;;;;;;;;;2.00;99.90;2.60;100498.00;;;;346237;28;82424;-89
2021/12/12 00:17:39;;;;;;;;;;;2.00;99.90;2.60;100503.00;;;;348364;27;89387;-88
2021/12/12 00:17:51;;;;;;;;;;;2.00;99.90;2.60;100496.00;;;;347542;28;83447;-89
2021/12/12 00:18:03;;;;;;;;;;;2.00;99.90;2.70;100493.00;;;;346731;28;90322;-89
2021/12/12 00:18:15;;;;;;;;;;;2.00;99.90;2.70;100493.00;;;;350479;27;83180;-89
2021/12/12 00:18:27;;;;;;;;;;;2.00;99.90;2.70;100492.00;;;;347083;28;89141;-89
2021/12/12 00:18:39;;;;;;;;;;;2.00;99.90;2.80;100495.00;;;;347596;28;83220;-89
2021/12/12 00:18:51;;;;;;;;;;;2.00;99.90;2.70;100501.00;;;;347759;27;90761;-89
2021/12/12 00:19:04;;;;;;;;;;;2.00;99.90;2.60;100492.00;;;;347377;28;83557;-89
2021/12/12 00:19:15;;;;;;;;;;;2.00;99.90;2.60;100491.00;;;;346286;28;87799;-88
2021/12/12 00:19:28;;;;;;;;;;;2.00;99.90;2.70;100491.00;;;;347347;28;82360;-88
2021/12/12 00:19:39;;;;;;;;;;;2.00;99.90;2.60;100492.00;;;;349844;27;89545;-88
2021/12/12 00:19:51;;;;;;;;;;;2.00;99.90;2.70;100495.00;;;;350768;27;82507;-88
2021/12/12 00:20:04;;;;;;;;;;;2.00;99.90;2.70;100491.00;;;;348556;28;88932;-88
2021/12/12 00:20:17;;;;;;;;;;;2.00;99.90;2.60;100490.00;;;;348833;28;82381;-87
2021/12/12 00:20:29;;;;;;;;;;;2.00;99.90;2.60;100496.00;;;;349979;27;87286;-90
2021/12/12 00:20:41;;;;;;;;;;;2.00;99.90;2.60;100498.00;;;;348560;28;82425;-88
2021/12/12 00:20:53;;;;;;;;;;;2.00;99.90;2.60;100496.00;;;;348203;28;88334;-89
2021/12/12 00:21:05;;;;;;;;;;;2.00;99.90;2.70;100496.00;;;;349876;27;82553;-88
2021/12/12 00:21:17;;;;;;;;;;;2.00;99.90;2.80;100490.00;;;;348397;28;87636;-89
2021/12/12 00:21:30;;;;;;;;;;;2.00;99.90;2.80;100490.00;;;;348872;28;82298;-88
2021/12/12 00:21:44;;;;;;;;;;;2.00;99.90;2.70;100493.00;;;;351166;27;88240;-89
2021/12/12 00:21:58;;;;;;;;;;;2.00;99.90;2.70;100490.00;;;;348808;28;82322;-87
2021/12/12 00:22:15;;;;;;;;;;;2.00;99.90;2.70;100489.00;;;;346707;28;91377;-88
2021/12/12 00:22:27;;;;;;;;;;;2.00;99.90;2.80;100492.00;;;;347321;28;82601;-89
2021/12/12 00:22:39;;;;;;;;;;;2.10;99.90;2.90;100499.00;;;;348385;28;89908;-87
2021/12/12 00:22:55;;;;;;;;;;;2.00;99.90;2.80;100493.00;;;;348494;28;82445;-87
2021/12/12 00:23:07;;;;;;;;;;;2.10;99.90;2.80;100489.00;;;;350842;27;90936;-88
2021/12/12 00:23:19;;;;;;;;;;;2.10;99.90;2.80;100495.00;;;;350230;27;82294;-89
2021/12/12 00:23:30;;;;;;;;;;;2.00;99.90;2.80;100497.00;;;;349047;27;88364;-88
2021/12/12 00:23:42;;;;;;;;;;;2.10;99.90;2.80;100488.00;;;;347511;28;83551;-89
2021/12/12 00:23:55;;;;;;;;;;;2.10;99.90;2.90;100492.00;;;;349934;27;89465;-89
2021/12/12 00:24:08;;;;;;;;;;;2.10;99.90;2.80;100495.00;;;;347457;28;83318;-89
2021/12/12 00:24:20;;;;;;;;;;;2.10;99.90;2.70;100495.00;;;;346742;28;90536;-88
2021/12/12 00:24:32;;;;;;;;;;;2.10;99.90;2.80;100499.00;;;;349272;27;83205;-89
2021/12/12 00:24:45;;;;;;;;;;;2.10;99.90;2.80;100500.00;;;;347662;28;88258;-88
2021/12/12 00:24:57;;;;;;;;;;;2.10;99.90;2.70;100498.00;;;;349510;27;82365;-87
2021/12/12 00:25:08;;;;;;;;;;;2.10;99.90;2.80;100492.00;;;;347750;28;92535;-88
2021/12/12 00:25:20;;;;;;;;;;;2.10;99.90;2.80;100494.00;;;;346441;28;82484;-89
2021/12/12 00:25:35;;;;;;;;;;;2.10;99.90;2.70;100494.00;;;;346847;28;88109;-89
2021/12/12 00:25:51;;;;;;;;;;;2.10;99.90;2.70;100500.00;;;;349354;27;83282;-88
2021/12/12 00:26:03;;;;;;;;;;;2.10;99.90;2.70;100501.00;;;;346558;28;91384;-89
2021/12/12 00:26:15;;;;;;;;;;;2.10;99.90;2.70;100493.00;;;;346858;28;83532;-89
2021/12/12 00:26:27;;;;;;;;;;;2.10;99.90;2.70;100499.00;;;;346395;28;89030;-88
2021/12/12 00:26:40;;;;;;;;;;;2.10;99.90;2.80;100496.00;;;;346871;28;82241;-88
2021/12/12 00:26:53;;;;;;;;;;;2.10;99.90;2.80;100499.00;;;;348225;28;88260;-88
2021/12/12 00:27:05;;;;;;;;;;;2.10;99.90;2.80;100498.00;;;;347510;28;83450;-89
2021/12/12 00:27:17;;;;;;;;;;;2.10;99.90;2.70;100489.00;;;;344427;28;88994;-89
2021/12/12 00:27:28;;;;;;;;;;;2.10;99.90;2.70;100488.00;;;;346121;28;82338;-89
2021/12/12 00:27:40;;;;;;;;;;;2.10;99.90;2.70;100488.00;;;;345710;28;89433;-88
2021/12/12 00:27:52;;;;;;;;;;;2.10;99.90;2.70;100491.00;;;;345575;28;83465;-89
2021/12/12 00:28:04;;;;;;;;;;;2.10;99.90;2.80;100496.00;;;;348079;27;89883;-89
2021/12/12 00:28:19;;;;;;;;;;;2.10;99.90;2.80;100493.00;;;;347483;28;82356;-87
2021/12/12 00:28:31;;;;;;;;;;;2.10;99.90;2.70;100492.00;;;;344202;28;90442;-88
2021/12/12 00:28:43;;;;;;;;;;;2.10;99.90;2.70;100495.00;;;;345974;28;82358;-89
2021/12/12 00:28:55;;;;;;;;;;;2.00;99.90;2.80;100490.00;;;;346352;28;92113;-89
2021/12/12 00:29:10;;;;;;;;;;;2.10;99.90;2.90;100501.00;;;;345930;28;83518;-89
2021/12/12 00:29:22;;;;;;;;;;;2.10;99.90;2.90;100499.00;;;;348514;27;87820;-89
2021/12/12 00:29:34;;;;;;;;;;;2.10;99.90;2.80;100490.00;;;;347571;28;83271;-89
2021/12/12 00:29:46;;;;;;;;;;;2.10;99.90;2.80;100489.00;;;;345461;28;90878;-88
2021/12/12 00:30:02;;;;;;;;;;;2.10;99.90;2.70;100494.00;;;;347384;28;83351;-89
2021/12/12 00:30:14;;;;;;;;;;;2.10;99.90;2.80;100491.00;;;;344161;28;90444;-89
2021/12/12 00:30:26;;;;;;;;;;;2.10;99.90;2.90;100501.00;;;;343334;28;82321;-88
2021/12/12 00:30:38;;;;;;;;;;;2.10;99.90;2.80;100495.00;;;;345725;28;89614;-88
2021/12/12 00:30:51;;;;;;;;;;;2.10;99.90;2.80;100492.00;;;;346571;28;82445;-88
2021/12/12 00:31:09;;;;;;;;;;;2.10;99.90;2.70;100495.00;;;;346922;28;89167;-88
2021/12/12 00:31:21;;;;;;;;;;;2.10;99.90;2.70;100493.00;;;;346005;28;83227;-89
2021/12/12 00:31:33;;;;;;;;;;;2.10;99.90;2.70;100492.00;;;;345764;28;88227;-89
2021/12/12 00:31:46;;;;;;;;;;;2.10;99.90;2.70;100490.00;;;;347465;28;82480;-89
2021/12/12 00:31:59;;;;;;;;;;;2.10;99.90;2.80;100489.00;;;;344246;28;90557;-89
2021/12/12 00:32:14;;;;;;;;;;;2.10;99.90;2.80;100503.00;;;;346132;28;83397;-89
2021/12/12 00:32:26;;;;;;;;;;;2.10;99.90;2.70;100496.00;;;;344135;28;90551;-89
2021/12/12 00:32:39;;;;;;;;;;;2.10;99.90;2.70;100501.00;;;;344730;28;83125;-89
2021/12/12 00:32:52;;;;;;;;;;;2.10;99.90;2.80;100497.00;;;;347103;28;90192;-89
2021/12/12 00:33:04;;;;;;;;;;;2.10;99.90;2.80;100491.00;;;;345973;28;83265;-88
2021/12/12 00:33:16;;;;;;;;;;;2.10;99.90;2.70;100492.00;;;;347116;28;87864;-89
2021/12/12 00:33:28;;;;;;;;;;;2.10;99.90;2.80;100500.00;;;;347397;27;82422;-88
2021/12/12 00:33:47;;;;;;;;;;;2.10;99.90;2.80;100494.00;;;;345611;28;89046;-88
2021/12/12 00:33:59;;;;;;;;;;;2.10;99.90;2.70;100492.00;;;;345928;28;83281;-89
2021/12/12 00:34:11;;;;;;;;;;;2.10;99.90;2.70;100496.00;;;;344213;28;89080;-88
2021/12/12 00:34:24;;;;;;;;;;;2.10;99.90;2.70;100496.00;;;;345815;28;83395;-88
2021/12/12 00:34:39;;;;;;;;;;;2.10;99.90;2.70;100494.00;;;;347112;28;89093;-88
2021/12/12 00:34:54;;;;;;;;;;;2.10;99.90;2.70;100497.00;;;;345915;28;83456;-88
2021/12/12 00:35:13;;;;;;;;;;;2.10;99.90;2.60;100493.00;;;;345078;28;92078;-88
2021/12/12 00:35:24;;;;;;;;;;;2.10;99.90;2.70;100498.00;;;;346162;28;83246;-88
2021/12/12 00:35:36;;;;;;;;;;;2.00;99.90;2.70;100485.00;;;;345720;28;88377;-87
2021/12/12 00:35:49;;;;;;;;;;;2.00;99.90;2.70;100490.00;;;;346143;28;83334;-89
2021/12/12 00:36:01;;;;;;;;;;;2.00;99.90;2.70;100490.00;;;;347195;28;88966;-89
2021/12/12 00:36:17;;;;;;;;;;;2.00;99.90;2.60;100493.00;;;;346033;28;83337;-89
2021/12/12 00:36:29;;;;;;;;;;;2.10;99.90;2.60;100485.00;;;;346988;27;89283;-89
2021/12/12 00:36:41;;;;;;;;;;;2.00;99.90;2.60;100500.00;;;;347521;28;83228;-89
2021/12/12 00:36:53;;;;;;;;;;;2.00;99.90;2.60;100494.00;;;;345002;28;90422;-88
2021/12/12 00:37:07;;;;;;;;;;;2.00;99.90;2.70;100489.00;;;;347332;28;83512;-89
2021/12/12 00:37:19;;;;;;;;;;;2.00;99.90;2.70;100485.00;;;;346922;28;89999;-89
2021/12/12 00:37:31;;;;;;;;;;;2.00;99.90;2.70;100498.00;;;;347457;28;83248;-89
2021/12/12 00:37:43;;;;;;;;;;;2.00;99.90;2.60;100489.00;;;;345559;28;91584;-88
2021/12/12 00:37:58;;;;;;;;;;;2.00;99.90;2.60;100501.00;;;;346070;28;83540;-89
2021/12/12 00:38:16;;;;;;;;;;;2.00;99.90;2.60;100500.00;;;;345588;28;89673;-89
2021/12/12 00:38:29;;;;;;;;;;;2.00;99.90;2.60;100489.00;;;;346026;28;83313;-89
2021/12/12 00:38:42;;;;;;;;;;;2.00;99.90;2.70;100497.00;;;;345675;28;89585;-88
2021/12/12 00:38:58;;;;;;;;;;;2.00;99.90;2.60;100492.00;;;;347074;28;84125;-88
2021/12/12 00:39:16;;;;;;;;;;;2.00;99.90;2.60;100502.00;;;;347078;28;88364;-89
2021/12/12 00:39:29;;;;;;;;;;;2.00;99.90;2.60;100498.00;;;;347330;28;83247;-88
2021/12/12 00:39:49;;;;;;;;;;;2.00;99.90;2.60;100502.00;;;;345635;28;90123;-88
2021/12/12 00:40:06;;;;;;;;;;;2.00;99.90;2.60;100504.00;;;;345114;28;82170;-89
2021/12/12 00:40:23;;;;;;;;;;;2.00;99.90;2.60;100505.00;;;;349523;27;92504;-89
2021/12/12 00:40:37;;;;;;;;;;;2.00;99.90;2.70;100499.00;;;;350313;27;83151;-89
2021/12/12 00:40:50;;;;;;;;;;;2.00;99.90;2.60;100497.00;;;;345637;28;89313;-88
2021/12/12 00:41:07;;;;;;;;;;;2.00;99.90;2.70;100500.00;;;;347373;28;83406;-88
2021/12/12 00:41:43;;;;;;;;;;;2.00;99.90;2.70;100499.00;;;;347037;28;88380;-89
2021/12/12 00:42:05;;;;;;;;;;;2.00;99.90;2.80;100496.00;;;;347527;28;82475;-89
2021/12/12 00:42:19;;;;;;;;;;;2.00;99.90;2.80;100485.00;;;;345564;28;89181;-88
2021/12/12 00:42:33;;;;;;;;;;;2.00;99.90;2.80;100488.00;;;;347461;28;83256;-88
2021/12/12 00:42:45;;;;;;;;;;;2.00;99.90;2.80;100495.00;;;;346531;28;89270;-89
2021/12/12 00:43:00;;;;;;;;;;;2.00;99.90;2.80;100493.00;;;;347003;28;83320;-89
2021/12/12 00:43:17;;;;;;;;;;;2.00;99.90;2.70;100496.00;;;;344245;28;89327;-89
2021/12/12 00:43:34;;;;;;;;;;;2.00;99.90;2.70;100487.00;;;;346155;28;82343;-88
2021/12/12 00:43:48;;;;;;;;;;;2.00;99.90;2.70;100487.00;;;;345722;28;88351;-89
2021/12/12 00:44:00;;;;;;;;;;;2.00;99.90;2.80;100489.00;;;;347552;28;82440;-89
2021/12/12 00:44:12;;;;;;;;;;;2.00;99.90;2.80;100496.00;;;;345627;28;89469;-89
2021/12/12 00:44:24;;;;;;;;;;;2.00;99.90;2.70;100490.00;;;;347378;28;83195;-88
2021/12/12 00:44:43;;;;;;;;;;;2.10;99.90;2.70;100483.00;;;;344378;28;87631;-89
2021/12/12 00:44:57;;;;;;;;;;;2.10;99.90;2.80;100488.00;;;;344904;28;82165;-89
2021/12/12 00:45:11;;;;;;;;;;;2.10;99.90;2.70;100487.00;;;;345482;28;93071;-89
2021/12/12 00:45:23;;;;;;;;;;;2.10;99.90;2.70;100485.00;;;;348608;27;83445;-89
2021/12/12 00:45:34;;;;;;;;;;;2.00;99.90;2.80;100487.00;;;;346865;28;89276;-87
2021/12/12 00:45:46;;;;;;;;;;;2.10;99.90;2.80;100483.00;;;;346979;27;83414;-89
2021/12/12 00:46:00;;;;;;;;;;;2.10;99.90;2.80;100493.00;;;;349227;27;89438;-89
2021/12/12 00:46:11;;;;;;;;;;;2.10;99.90;2.80;100484.00;;;;347591;28;82477;-89
2021/12/12 00:46:24;;;;;;;;;;;2.10;99.90;2.80;100487.00;;;;345554;28;88706;-88
2021/12/12 00:46:35;;;;;;;;;;;2.10;99.90;2.70;100483.00;;;;346213;28;82270;-89
2021/12/12 00:46:47;;;;;;;;;;;2.10;99.90;2.70;100489.00;;;;348222;27;91498;-89
2021/12/12 00:47:01;;;;;;;;;;;2.00;99.90;2.70;100488.00;;;;344717;28;83332;-88
2021/12/12 00:47:13;;;;;;;;;;;2.10;99.90;2.70;100482.00;;;;346743;28;93016;-88
2021/12/12 00:47:45;;;;;;;;;;;2.00;99.90;2.70;100496.00;;;;345968;28;82613;-89
2021/12/12 00:47:57;;;;;;;;;;;2.00;99.90;2.70;100483.00;;;;344206;28;90975;-89
2021/12/12 00:48:09;;;;;;;;;;;2.00;99.90;2.80;100484.00;;;;347152;28;83493;-89
2021/12/12 00:48:22;;;;;;;;;;;2.00;99.90;2.80;100485.00;;;;348461;27;87840;-89
2021/12/12 00:48:34;;;;;;;;;;;2.00;99.90;2.90;100485.00;;;;346091;28;82415;-89
2021/12/12 00:48:46;;;;;;;;;;;2.00;99.90;2.80;100496.00;;;;345366;28;88932;-88
2021/12/12 00:48:58;;;;;;;;;;;2.00;99.90;2.70;100488.00;;;;346766;28;82707;-89
2021/12/12 00:49:10;;;;;;;;;;;2.10;99.90;2.70;100484.00;;;;344328;28;88817;-88
2021/12/12 00:49:21;;;;;;;;;;;2.00;99.90;2.70;100488.00;;;;346586;28;83419;-89
2021/12/12 00:49:35;;;;;;;;;;;2.10;99.90;2.80;100484.00;;;;346737;28;92404;-88
2021/12/12 00:49:47;;;;;;;;;;;2.10;99.90;2.80;100483.00;;;;345767;28;83310;-89
2021/12/12 00:49:59;;;;;;;;;;;2.10;99.90;2.80;100492.00;;;;347005;28;88281;-89
2021/12/12 00:50:15;;;;;;;;;;;2.10;99.90;2.70;100491.00;;;;348838;27;83115;-88
2021/12/12 00:50:34;;;;;;;;;;;2.10;99.90;2.80;100486.00;;;;345327;28;91876;-89
2021/12/12 00:50:46;;;;;;;;;;;2.10;99.90;2.70;100485.00;;;;345937;28;82420;-88
2021/12/12 00:50:58;;;;;;;;;;;2.10;99.90;2.80;100487.00;;;;344204;28;88299;-88
2021/12/12 00:51:12;;;;;;;;;;;2.10;99.90;2.70;100480.00;;;;346156;28;82456;-89
2021/12/12 00:51:30;;;;;;;;;;;2.00;99.90;2.80;100484.00;;;;346282;28;88383;-89
2021/12/12 00:51:43;;;;;;;;;;;2.10;99.90;2.80;100487.00;;;;345737;28;83440;-89
2021/12/12 00:51:54;;;;;;;;;;;2.10;99.90;2.80;100479.00;;;;348090;27;90601;-89
2021/12/12 00:52:08;;;;;;;;;;;2.10;99.90;2.70;100487.00;;;;347284;28;83370;-89
2021/12/12 00:52:20;;;;;;;;;;;2.10;99.90;2.80;100491.00;;;;349702;27;89214;-88
2021/12/12 00:52:32;;;;;;;;;;;2.10;99.90;2.80;100488.00;;;;348960;27;82287;-89
2021/12/12 00:52:45;;;;;;;;;;;2.10;99.90;2.90;100488.00;;;;346528;28;88270;-89
2021/12/12 00:52:57;;;;;;;;;;;2.10;99.90;2.80;100485.00;;;;347218;28;83240;-88
2021/12/12 00:53:10;;;;;;;;;;;2.10;99.90;2.90;100485.00;;;;348266;27;88959;-89
2021/12/12 00:53:22;;;;;;;;;;;2.10;99.90;2.90;100491.00;;;;348693;27;82625;-89
2021/12/12 00:53:34;;;;;;;;;;;2.10;99.90;2.90;100483.00;;;;345476;28;91378;-89
2021/12/12 00:53:45;;;;;;;;;;;2.10;99.90;2.90;100488.00;;;;346020;28;83418;-89
2021/12/12 00:53:58;;;;;;;;;;;2.10;99.90;3.00;100479.00;;;;344028;28;90147;-89
2021/12/12 00:54:10;;;;;;;;;;;2.10;99.90;3.00;100492.00;;;;344424;28;83362;-89
2021/12/12 00:54:23;;;;;;;;;;;2.10;99.90;3.00;100489.00;;;;345670;28;87908;-88
2021/12/12 00:54:35;;;;;;;;;;;2.10;99.90;3.00;100491.00;;;;347481;28;83305;-89
2021/12/12 00:54:47;;;;;;;;;;;2.10;99.90;3.00;100490.00;;;;346932;27;90250;-89
2021/12/12 00:54:59;;;;;;;;;;;2.20;99.90;3.00;100487.00;;;;347320;27;82659;-88
2021/12/12 00:55:11;;;;;;;;;;;2.20;99.90;3.00;100486.00;;;;344346;28;88708;-89
2021/12/12 00:55:23;;;;;;;;;;;2.20;99.90;3.00;100488.00;;;;347538;27;83320;-89
2021/12/12 00:55:38;;;;;;;;;;;2.20;99.90;3.00;100483.00;;;;347018;28;89266;-89
2021/12/12 00:55:50;;;;;;;;;;;2.20;99.90;3.00;100485.00;;;;348742;27;83340;-89
2021/12/12 00:56:02;;;;;;;;;;;2.20;99.90;2.90;100491.00;;;;347060;28;89745;-89
2021/12/12 00:56:14;;;;;;;;;;;2.20;99.90;2.90;100488.00;;;;345892;28;83312;-89
2021/12/12 00:56:26;;;;;;;;;;;2.20;99.90;3.00;100490.00;;;;348098;27;89695;-89
2021/12/12 00:56:38;;;;;;;;;;;2.20;99.90;2.90;100486.00;;;;348901;27;83206;-89
2021/12/12 00:56:49;;;;;;;;;;;2.20;99.90;2.80;100483.00;;;;348451;27;89571;-89
2021/12/12 00:57:05;;;;;;;;;;;2.20;99.90;2.80;100495.00;;;;347375;28;83322;-88
2021/12/12 00:57:19;;;;;;;;;;;2.20;99.90;2.90;100492.00;;;;347119;28;88049;-88
2021/12/12 00:57:31;;;;;;;;;;;2.20;99.90;2.90;100490.00;;;;348646;27;83568;-89
2021/12/12 00:57:49;;;;;;;;;;;2.20;99.90;2.80;100490.00;;;;347012;28;87931;-89
2021/12/12 00:58:01;;;;;;;;;;;2.20;99.90;2.80;100490.00;;;;344988;28;83265;-89
2021/12/12 00:58:14;;;;;;;;;;;2.20;99.90;2.70;100490.00;;;;346826;27;91453;-89
2021/12/12 00:58:26;;;;;;;;;;;2.20;99.90;2.70;100488.00;;;;344424;28;83286;-89
2021/12/12 00:58:38;;;;;;;;;;;2.20;99.90;2.70;100487.00;;;;345473;28;88371;-89
2021/12/12 00:58:50;;;;;;;;;;;2.10;99.90;2.80;100488.00;;;;346027;28;82438;-89
2021/12/12 00:59:03;;;;;;;;;;;2.20;99.90;2.70;100484.00;;;;345339;28;92017;-89
2021/12/12 00:59:15;;;;;;;;;;;2.10;99.90;2.70;100483.00;;;;346211;28;83032;-89
2021/12/12 00:59:28;;;;;;;;;;;2.10;99.90;2.80;100489.00;;;;346986;28;88403;-88
2021/12/12 00:59:40;;;;;;;;;;;2.10;99.90;2.80;100485.00;;;;347186;28;83500;-88
2021/12/12 00:59:52;;;;;;;;;;;2.10;99.90;2.80;100489.00;;;;347017;28;88450;-89
2021/12/12 01:00:06;;;;;;;;;;;2.10;99.90;2.80;100488.00;;;;344602;28;83299;-89
2021/12/12 01:00:26;;;;;;;;;;;2.10;99.90;2.80;100498.00;;;;346800;28;91609;-88
2021/12/12 01:00:43;;;;;;;;;;;2.10;99.90;2.80;100493.00;;;;345977;28;83333;-89
2021/12/12 01:00:59;;;;;;;;;;;2.10;99.90;2.90;100492.00;;;;347589;27;90553;-88
2021/12/12 01:01:18;;;;;;;;;;;2.10;99.90;3.00;100491.00;;;;347361;28;82464;-89
2021/12/12 01:01:34;;;;;;;;;;;2.10;99.90;2.90;100495.00;;;;344284;28;89563;-89
2021/12/12 01:01:47;;;;;;;;;;;2.10;99.90;2.90;100495.00;;;;345999;28;83456;-89
2021/12/12 01:01:59;;;;;;;;;;;2.10;99.90;2.90;100495.00;;;;347067;28;89558;-88
2021/12/12 01:02:21;;;;;;;;;;;2.10;99.90;2.80;100492.00;;;;346161;28;83165;-89
2021/12/12 01:02:33;;;;;;;;;;;2.10;99.90;2.80;100497.00;;;;346845;28;92146;-88
2021/12/12 01:02:44;;;;;;;;;;;2.10;99.90;2.70;100498.00;;;;344352;28;82548;-89
2021/12/12 01:02:57;;;;;;;;;;;2.10;99.90;2.70;100491.00;;;;344279;28;89003;-88
2021/12/12 01:03:09;;;;;;;;;;;2.10;99.90;2.80;100486.00;;;;346068;28;83304;-89
2021/12/12 01:03:28;;;;;;;;;;;2.10;99.90;2.80;100487.00;;;;344291;28;87156;-87
2021/12/12 01:03:44;;;;;;;;;;;2.10;99.90;2.70;100494.00;;;;348658;27;83583;-90
2021/12/12 01:04:04;;;;;;;;;;;2.10;99.90;2.70;100494.00;;;;347787;27;88036;-88
2021/12/12 01:04:24;;;;;;;;;;;2.10;99.90;2.70;100498.00;;;;347721;27;83241;-87
2021/12/12 01:04:38;;;;;;;;;;;2.10;99.90;2.80;100497.00;;;;348406;27;89337;-88
2021/12/12 01:04:52;;;;;;;;;;;2.10;99.90;2.80;100498.00;;;;347901;27;83416;-89
2021/12/12 01:05:05;;;;;;;;;;;2.10;99.90;2.70;100501.00;;;;345707;28;88016;-88
2021/12/12 01:05:17;;;;;;;;;;;2.00;99.90;2.70;100502.00;;;;346204;28;82283;-89
2021/12/12 01:05:29;;;;;;;;;;;2.00;99.90;2.70;100502.00;;;;345669;28;89448;-88
2021/12/12 01:05:42;;;;;;;;;;;2.00;99.90;2.70;100498.00;;;;345698;28;82641;-89
2021/12/12 01:05:55;;;;;;;;;;;2.00;99.90;2.70;100507.00;;;;345729;28;87604;-89
2021/12/12 01:06:08;;;;;;;;;;;2.00;99.90;2.70;100504.00;;;;348892;27;83253;-89
2021/12/12 01:06:20;;;;;;;;;;;2.00;99.90;2.70;100493.00;;;;345657;28;88239;-88
2021/12/12 01:06:32;;;;;;;;;;;2.00;99.90;2.70;100494.00;;;;347493;28;83216;-89
2021/12/12 01:06:44;;;;;;;;;;;2.00;99.90;2.70;100494.00;;;;345221;28;91842;-89
2021/12/12 01:06:57;;;;;;;;;;;2.00;99.90;2.70;100502.00;;;;346983;28;83512;-88
2021/12/12 01:07:12;;;;;;;;;;;2.00;99.90;2.70;100506.00;;;;349558;27;89885;-89
2021/12/12 01:07:27;;;;;;;;;;;2.00;99.90;2.60;100512.00;;;;350250;27;82428;-88
2021/12/12 01:07:40;;;;;;;;;;;2.00;99.90;2.60;100502.00;;;;347913;27;92495;-88
2021/12/12 01:07:52;;;;;;;;;;;2.00;99.90;2.60;100501.00;;;;347198;28;83146;-88
2021/12/12 01:08:05;;;;;;;;;;;2.00;99.90;2.60;100499.00;;;;346838;28;90079;-89
2021/12/12 01:08:17;;;;;;;;;;;2.00;99.90;2.60;100504.00;;;;346157;28;82393;-88
2021/12/12 01:08:29;;;;;;;;;;;2.00;99.90;2.50;100501.00;;;;346714;28;90183;-89
2021/12/12 01:08:41;;;;;;;;;;;2.00;99.90;2.50;100502.00;;;;348600;27;83488;-89
2021/12/12 01:08:54;;;;;;;;;;;2.00;99.90;2.50;100511.00;;;;345583;28;90730;-89
2021/12/12 01:09:08;;;;;;;;;;;2.00;99.90;2.50;100513.00;;;;348551;27;83535;-89
2021/12/12 01:09:24;;;;;;;;;;;2.00;99.90;2.50;100514.00;;;;345532;28;89457;-88
2021/12/12 01:09:43;;;;;;;;;;;2.00;99.90;2.50;100503.00;;;;347258;28;82409;-88
2021/12/12 01:10:03;;;;;;;;;;;2.00;99.90;2.50;100502.00;;;;347237;27;92011;-88
2021/12/12 01:10:37;;;;;;;;;;;2.00;99.90;2.50;100511.00;;;;347432;28;83257;-89
2021/12/12 01:11:12;;;;;;;;;;;1.90;99.90;2.50;100514.00;;;;346991;28;89227;-88
2021/12/12 01:11:44;;;;;;;;;;;1.90;99.90;2.60;100512.00;;;;346082;28;83352;-89
2021/12/12 01:11:58;;;;;;;;;;;1.90;99.90;2.60;100511.00;;;;347031;28;89359;-89